Time;durP1;ratioP1;P1;durP2;ratioP2;P2;SDS_P1;SDS_P2;PMS_P1;PMS_P2;Temp;Humidity;BMP_temperature;BMP_pressure;BME280_temperature;BME280_humidity;BME280_pressure;Samples;Min_cycle;Max_cycle;Signal;HPM_P1;HPM_P2
2022/07/23 00:00:15;;;;;;;6.73;5.83;;;;;;;21.95;68.97;99989.53;4963000;28;20537;-67
2022/07/23 00:02:40;;;;;;;6.13;5.63;;;;;;;21.87;69.16;99993.78;4987123;28;20262;-68
2022/07/23 00:05:05;;;;;;;7.00;6.30;;;;;;;21.75;70.07;99995.06;4973736;28;20618;-68
2022/07/23 00:07:31;;;;;;;5.93;5.27;;;;;;;21.64;70.64;100000.59;4973267;28;20654;-68
2022/07/23 00:09:56;;;;;;;5.93;5.23;;;;;;;21.60;71.33;99998.28;4973221;28;20210;-68
2022/07/23 00:12:21;;;;;;;6.00;5.23;;;;;;;21.64;72.22;100001.41;4949575;28;20637;-68
2022/07/23 00:14:47;;;;;;;6.57;5.97;;;;;;;21.43;73.42;99996.53;4973489;28;20196;-68
2022/07/23 00:17:12;;;;;;;9.77;5.37;;;;;;;21.21;74.38;99983.03;4973015;28;20310;-68
2022/07/23 00:19:38;;;;;;;6.80;6.07;;;;;;;21.26;75.00;99985.16;4971523;28;20608;-68
2022/07/23 00:22:03;;;;;;;7.83;6.03;;;;;;;21.28;74.70;99986.69;4965133;28;20247;-68
2022/07/23 00:24:28;;;;;;;7.40;6.27;;;;;;;21.31;74.38;100000.41;4973307;28;20226;-68
2022/07/23 00:26:54;;;;;;;6.07;5.57;;;;;;;21.34;74.00;99987.03;4973363;28;20176;-68
2022/07/23 00:29:19;;;;;;;6.57;5.73;;;;;;;21.34;74.03;99979.19;4973296;28;20192;-68
2022/07/23 00:31:44;;;;;;;6.10;5.47;;;;;;;21.26;74.99;99977.31;4964921;28;20581;-68
2022/07/23 00:34:10;;;;;;;7.00;5.67;;;;;;;21.14;75.95;99968.94;4975525;28;20659;-68
2022/07/23 00:36:35;;;;;;;6.40;5.80;;;;;;;21.24;75.33;99956.56;4973205;28;20176;-68
2022/07/23 00:39:00;;;;;;;7.17;5.67;;;;;;;21.25;75.56;99962.63;4973170;28;20325;-68
2022/07/23 00:41:25;;;;;;;6.97;5.73;;;;;;;21.19;75.95;99958.84;4973697;28;20585;-68
2022/07/23 00:43:51;;;;;;;7.30;5.97;;;;;;;21.14;76.26;99966.34;4971803;28;20191;-68
2022/07/23 00:46:20;;;;;;;6.47;5.87;;;;;;;21.06;77.28;99977.56;4973292;28;20255;-68
2022/07/23 00:48:46;;;;;;;10.77;6.03;;;;;;;20.90;79.37;99990.53;4972417;28;20192;-68
2022/07/23 00:51:11;;;;;;;6.30;5.77;;;;;;;20.99;79.46;100001.84;4971185;28;20219;-68
2022/07/23 00:53:36;;;;;;;6.83;6.20;;;;;;;20.98;79.47;100010.69;4979740;28;20188;-68
2022/07/23 00:56:02;;;;;;;7.07;5.97;;;;;;;21.02;79.86;100025.09;4972472;28;20256;-68
2022/07/23 00:58:27;;;;;;;6.30;5.70;;;;;;;21.07;79.61;100041.16;4972570;28;20211;-68
2022/07/23 01:00:53;;;;;;;6.30;5.63;;;;;;;21.13;78.63;100035.31;4972687;28;20720;-68
2022/07/23 01:03:18;;;;;;;6.90;6.30;;;;;;;21.02;78.28;100025.91;4985357;28;20238;-68
2022/07/23 01:05:44;;;;;;;6.23;5.73;;;;;;;21.23;76.31;100024.72;4975515;28;20196;-68
2022/07/23 01:08:10;;;;;;;6.43;5.83;;;;;;;21.46;75.23;100019.78;4974828;28;20334;-68
2022/07/23 01:10:36;;;;;;;6.97;6.27;;;;;;;21.48;78.49;100030.91;4964780;28;20247;-68
2022/07/23 01:13:07;;;;;;;9.73;6.80;;;;;;;21.43;81.68;100033.16;4967415;28;20597;-68
2022/07/23 01:15:35;;;;;;;7.03;6.27;;;;;;;21.32;87.14;100023.78;4991535;28;20594;-68
2022/07/23 01:18:01;;;;;;;6.83;6.10;;;;;;;21.16;89.83;100002.78;4976462;28;20286;-67
2022/07/23 01:20:27;;;;;;;7.20;6.03;;;;;;;21.06;92.55;99989.81;4969361;28;20231;-67
2022/07/23 01:22:53;;;;;;;7.70;6.90;;;;;;;20.99;95.93;99983.56;4991721;28;20246;-67
2022/07/23 01:25:19;;;;;;;6.80;6.20;;;;;;;20.87;97.15;99959.47;4976508;28;20220;-67
2022/07/23 01:27:45;;;;;;;7.43;6.67;;;;;;;20.62;97.16;99943.59;4991546;28;20176;-67
2022/07/23 01:30:11;;;;;;;8.13;6.87;;;;;;;20.68;99.09;99969.13;4966281;28;20191;-67
2022/07/23 01:32:36;;;;;;;7.93;7.13;;;;;;;20.79;100.00;99991.63;4990035;28;20636;-67
2022/07/23 01:35:03;;;;;;;7.67;6.97;;;;;;;20.72;100.00;99987.97;4976171;28;20226;-67
2022/07/23 01:37:28;;;;;;;8.00;6.23;;;;;;;20.51;100.00;99980.44;4991159;28;20242;-67
2022/07/23 01:39:53;;;;;;;7.70;6.90;;;;;;;20.48;100.00;99977.16;4973102;28;20271;-67
2022/07/23 01:42:19;;;;;;;9.23;6.93;;;;;;;20.47;100.00;99975.50;4965678;28;20311;-67
2022/07/23 01:44:44;;;;;;;9.40;7.47;;;;;;;20.37;100.00;99973.97;4976255;28;20635;-66
2022/07/23 01:47:10;;;;;;;9.03;7.80;;;;;;;20.32;100.00;99985.66;4976115;28;20176;-67
2022/07/23 01:49:35;;;;;;;8.63;7.83;;;;;;;20.40;100.00;99979.69;4975215;28;20177;-67
2022/07/23 01:52:00;;;;;;;9.63;8.43;;;;;;;20.51;100.00;99978.63;4980877;28;20231;-67
2022/07/23 01:54:31;;;;;;;9.83;8.83;;;;;;;20.49;100.00;99977.94;4976024;28;20931;-67
2022/07/23 01:56:57;;;;;;;10.23;9.20;;;;;;;20.55;100.00;99960.88;4975902;28;20231;-67
2022/07/23 01:59:23;;;;;;;9.20;8.40;;;;;;;20.61;100.00;99995.03;4989840;28;20577;-67
2022/07/23 02:01:50;;;;;;;9.30;8.33;;;;;;;20.53;100.00;100008.06;4979084;28;20223;-67
2022/07/23 02:04:17;;;;;;;11.17;9.30;;;;;;;20.48;100.00;100015.53;4973996;28;20200;-67
2022/07/23 02:06:42;;;;;;;10.20;9.23;;;;;;;20.43;100.00;100015.16;4974497;28;20181;-67
2022/07/23 02:09:07;;;;;;;9.90;9.00;;;;;;;20.34;100.00;100003.78;4974347;28;20298;-67
2022/07/23 02:11:33;;;;;;;8.70;7.83;;;;;;;20.26;100.00;99996.72;4969397;28;20781;-67
2022/07/23 02:13:58;;;;;;;10.03;8.73;;;;;;;20.35;100.00;100002.03;4968925;28;20176;-67
2022/07/23 02:16:23;;;;;;;11.57;8.90;;;;;;;20.32;100.00;100003.94;4975273;28;20636;-67
2022/07/23 02:18:49;;;;;;;9.33;8.40;;;;;;;20.07;100.00;99997.69;4973179;28;20196;-67
2022/07/23 02:21:14;;;;;;;9.23;8.10;;;;;;;20.10;100.00;100007.81;4974342;28;20226;-67
2022/07/23 02:23:39;;;;;;;9.27;8.47;;;;;;;20.08;100.00;100006.31;4981215;28;20184;-68
2022/07/23 02:26:05;;;;;;;9.80;8.40;;;;;;;19.98;100.00;100012.44;4973719;28;20298;-68
2022/07/23 02:28:30;;;;;;;9.63;8.60;;;;;;;19.88;100.00;100021.28;4975386;28;20275;-67
2022/07/23 02:30:55;;;;;;;9.03;8.23;;;;;;;19.83;100.00;100024.34;4971768;28;20343;-67
2022/07/23 02:33:21;;;;;;;8.83;7.93;;;;;;;19.66;100.00;100020.72;4983395;28;20556;-68
2022/07/23 02:35:46;;;;;;;9.03;8.13;;;;;;;19.45;100.00;100007.84;4974200;28;20182;-67
2022/07/23 02:38:12;;;;;;;10.30;8.47;;;;;;;19.47;100.00;100000.72;4975114;28;20208;-68
2022/07/23 02:40:37;;;;;;;8.70;7.90;;;;;;;19.50;100.00;100003.06;4969117;28;20227;-68
2022/07/23 02:43:02;;;;;;;12.63;8.23;;;;;;;19.55;100.00;99997.38;4985389;28;20184;-68
2022/07/23 02:45:28;;;;;;;8.53;7.50;;;;;;;19.60;100.00;100003.03;4975349;28;20195;-68
2022/07/23 02:47:53;;;;;;;9.30;8.40;;;;;;;19.75;100.00;100004.16;4974624;28;20535;-68
2022/07/23 02:50:19;;;;;;;10.37;8.87;;;;;;;19.71;100.00;99992.38;4965110;28;20184;-68
2022/07/23 02:52:44;;;;;;;8.30;7.53;;;;;;;19.59;100.00;99988.31;4987493;28;20703;-68
2022/07/23 02:55:10;;;;;;;8.83;8.03;;;;;;;19.60;100.00;99987.38;4975034;28;20187;-68
2022/07/23 02:57:36;;;;;;;10.23;8.47;;;;;;;19.58;100.00;99977.06;4974409;28;20223;-69
2022/07/23 03:00:01;;;;;;;8.20;7.23;;;;;;;19.66;100.00;99987.59;4972534;28;20173;-69
2022/07/23 03:02:27;;;;;;;8.70;8.00;;;;;;;19.79;100.00;99991.66;4969932;28;20302;-68
2022/07/23 03:04:52;;;;;;;9.40;8.00;;;;;;;19.90;100.00;100003.72;4974523;28;20255;-68
2022/07/23 03:07:18;;;;;;;8.50;7.70;;;;;;;19.96;100.00;100006.53;4974602;28;20188;-68
2022/07/23 03:09:43;;;;;;;8.80;8.00;;;;;;;19.81;100.00;100005.38;4974595;28;20289;-68
2022/07/23 03:12:08;;;;;;;9.63;8.70;;;;;;;19.68;100.00;99996.09;4965810;28;20298;-68
2022/07/23 03:14:34;;;;;;;8.40;7.60;;;;;;;19.54;100.00;99995.78;4974562;28;20674;-68
2022/07/23 03:17:02;;;;;;;12.30;8.33;;;;;;;19.31;100.00;100009.16;4962627;28;20718;-68
2022/07/23 03:19:27;;;;;;;9.00;8.20;;;;;;;19.42;100.00;100008.97;4989370;28;20203;-68
2022/07/23 03:21:52;;;;;;;8.90;8.03;;;;;;;19.56;100.00;100006.84;4978036;28;20235;-69
2022/07/23 03:24:18;;;;;;;10.77;8.60;;;;;;;19.38;100.00;100005.03;4975480;28;20196;-68
2022/07/23 03:26:43;;;;;;;8.03;7.33;;;;;;;19.47;100.00;100014.59;4973262;28;20195;-68
2022/07/23 03:29:09;;;;;;;8.87;7.97;;;;;;;19.56;100.00;100020.75;4972253;28;20176;-68
2022/07/23 03:31:35;;;;;;;8.37;7.67;;;;;;;19.65;100.00;100035.53;4955771;28;20224;-68
2022/07/23 03:34:00;;;;;;;7.63;7.00;;;;;;;19.74;100.00;100046.88;4978098;28;20196;-68
2022/07/23 03:36:25;;;;;;;9.87;7.93;;;;;;;19.72;100.00;100051.44;4974431;28;20540;-68
2022/07/23 03:38:51;;;;;;;9.07;8.00;;;;;;;19.77;100.00;100050.97;4971900;28;20211;-69
2022/07/23 03:41:17;;;;;;;8.93;7.50;;;;;;;19.58;100.00;100051.91;4973371;28;20247;-69
2022/07/23 03:43:42;;;;;;;9.07;8.17;;;;;;;19.43;100.00;100041.13;4979645;28;20184;-68
2022/07/23 03:46:08;;;;;;;11.03;9.30;;;;;;;19.34;100.00;100038.38;4972408;28;20192;-68
2022/07/23 03:48:33;;;;;;;9.13;8.37;;;;;;;19.46;100.00;100039.03;4973790;28;20650;-68
2022/07/23 03:50:58;;;;;;;9.43;8.47;;;;;;;19.56;100.00;100033.78;4970803;28;20561;-68
2022/07/23 03:53:24;;;;;;;9.27;8.27;;;;;;;19.42;100.00;100034.25;4972447;28;20554;-68
2022/07/23 03:55:49;;;;;;;8.27;7.50;;;;;;;19.40;100.00;100031.78;4972316;28;20191;-69
2022/07/23 03:58:14;;;;;;;10.63;7.97;;;;;;;19.38;100.00;100036.31;4973879;28;20199;-68
2022/07/23 04:00:40;;;;;;;8.83;7.97;;;;;;;19.41;100.00;100040.41;4968521;28;20227;-68
2022/07/23 04:03:05;;;;;;;9.43;7.80;;;;;;;19.45;100.00;100041.78;4987468;28;20176;-69
2022/07/23 04:05:30;;;;;;;9.17;8.20;;;;;;;19.56;100.00;100049.44;4983808;28;20207;-69
2022/07/23 04:07:55;;;;;;;12.27;9.23;;;;;;;19.57;100.00;100056.28;4973220;28;20224;-69
2022/07/23 04:10:21;;;;;;;10.37;7.83;;;;;;;19.60;100.00;100065.63;4961748;28;20976;-68
2022/07/23 04:12:46;;;;;;;8.57;7.67;;;;;;;19.62;100.00;100074.13;4976323;28;20184;-68
2022/07/23 04:15:12;;;;;;;10.70;8.10;;;;;;;19.61;100.00;100081.13;4973364;28;20185;-69
2022/07/23 04:17:37;;;;;;;11.60;7.80;;;;;;;19.59;100.00;100090.88;4973794;28;20566;-68
2022/07/23 04:20:03;;;;;;;7.80;6.93;;;;;;;19.41;100.00;100088.22;4967577;28;20908;-69
2022/07/23 04:22:28;;;;;;;9.43;7.90;;;;;;;19.62;100.00;100087.16;4988128;28;20192;-68
2022/07/23 04:24:53;;;;;;;8.57;7.67;;;;;;;19.63;100.00;100088.81;4973618;28;20650;-68
2022/07/23 04:27:19;;;;;;;8.33;7.60;;;;;;;19.63;100.00;100094.03;4973466;28;20176;-68
2022/07/23 04:29:44;;;;;;;9.00;7.77;;;;;;;19.51;100.00;100096.81;4972721;28;20558;-68
2022/07/23 04:32:09;;;;;;;8.60;7.80;;;;;;;19.60;100.00;100104.78;4976772;28;20247;-69
2022/07/23 04:34:35;;;;;;;9.33;7.90;;;;;;;19.63;100.00;100097.44;4975560;28;20568;-68
2022/07/23 04:37:00;;;;;;;10.47;8.47;;;;;;;19.54;100.00;100093.09;4973352;28;20212;-68
2022/07/23 04:39:25;;;;;;;9.53;8.73;;;;;;;19.49;100.00;100103.97;4971362;28;20208;-68
2022/07/23 04:41:51;;;;;;;11.60;9.13;;;;;;;19.43;100.00;100114.16;4965143;28;20235;-68
2022/07/23 04:44:16;;;;;;;10.50;9.20;;;;;;;19.48;100.00;100114.53;4972086;28;20187;-68
2022/07/23 04:46:41;;;;;;;9.73;8.83;;;;;;;19.55;100.00;100118.22;4973164;28;20266;-69
2022/07/23 04:49:07;;;;;;;10.87;9.77;;;;;;;19.54;100.00;100115.78;4972687;28;20184;-68
2022/07/23 04:51:32;;;;;;;10.43;9.43;;;;;;;19.58;100.00;100117.94;4974516;28;20230;-68
2022/07/23 04:53:57;;;;;;;10.00;9.00;;;;;;;19.52;100.00;100113.28;4977112;28;20192;-68
2022/07/23 04:56:23;;;;;;;10.37;9.13;;;;;;;19.49;100.00;100118.78;4973034;28;20195;-68
2022/07/23 04:58:48;;;;;;;10.00;9.20;;;;;;;19.46;100.00;100119.91;4973157;28;20243;-68
2022/07/23 05:01:13;;;;;;;11.17;9.67;;;;;;;19.54;100.00;100127.03;4964868;28;20234;-68
2022/07/23 05:03:39;;;;;;;9.90;9.00;;;;;;;19.47;100.00;100129.38;4987781;28;20195;-68
2022/07/23 05:06:04;;;;;;;10.37;9.47;;;;;;;19.60;100.00;100131.66;4972860;28;20192;-69
2022/07/23 05:08:30;;;;;;;10.17;9.13;;;;;;;19.69;100.00;100119.56;4973012;28;20274;-68
2022/07/23 05:10:55;;;;;;;10.07;9.20;;;;;;;19.70;100.00;100117.75;4969868;28;20760;-68
2022/07/23 05:13:20;;;;;;;10.33;9.30;;;;;;;19.69;100.00;100122.16;4981678;28;20643;-68
2022/07/23 05:15:46;;;;;;;11.43;10.37;;;;;;;19.80;100.00;100137.66;4973046;28;20176;-68
2022/07/23 05:18:12;;;;;;;10.63;9.47;;;;;;;19.83;100.00;100140.00;4973086;28;20310;-68
2022/07/23 05:20:38;;;;;;;10.50;9.53;;;;;;;19.71;100.00;100142.91;4964812;28;20618;-68
2022/07/23 05:23:04;;;;;;;10.30;9.30;;;;;;;19.68;100.00;100144.84;4971610;28;20196;-68
2022/07/23 05:25:29;;;;;;;11.07;9.97;;;;;;;19.68;100.00;100144.00;4972756;28;20191;-69
2022/07/23 05:27:54;;;;;;;11.67;10.57;;;;;;;19.89;100.00;100143.00;4972998;28;20267;-68
2022/07/23 05:30:20;;;;;;;10.27;9.37;;;;;;;20.04;100.00;100138.16;4965042;28;20184;-68
2022/07/23 05:32:45;;;;;;;10.30;9.17;;;;;;;19.97;100.00;100143.09;4985624;28;20188;-68
2022/07/23 05:35:11;;;;;;;10.63;9.53;;;;;;;19.96;100.00;100136.25;4973409;28;20192;-68
2022/07/23 05:37:36;;;;;;;11.13;10.07;;;;;;;20.05;100.00;100131.97;4971602;28;20180;-68
2022/07/23 05:40:07;;;;;;;10.90;9.80;;;;;;;20.23;100.00;100130.22;4973077;28;20192;-69
2022/07/23 05:42:34;;;;;;;11.60;10.43;;;;;;;20.45;100.00;100138.59;4961749;28;20239;-68
2022/07/23 05:44:59;;;;;;;10.93;9.83;;;;;;;20.68;100.00;100148.63;4973063;28;20207;-69
2022/07/23 05:47:24;;;;;;;9.60;8.80;;;;;;;20.82;100.00;100149.94;4976705;28;20222;-69
2022/07/23 05:49:50;;;;;;;10.47;9.53;;;;;;;21.07;98.49;100151.81;4976447;28;20184;-69
2022/07/23 05:52:15;;;;;;;10.23;9.23;;;;;;;21.38;95.78;100156.59;4982836;28;20223;-69
2022/07/23 05:54:41;;;;;;;10.20;9.27;;;;;;;21.45;93.78;100157.63;4975803;28;20187;-69
2022/07/23 05:57:06;;;;;;;11.20;9.53;;;;;;;21.32;95.14;100157.22;4974751;28;20666;-69
2022/07/23 05:59:32;;;;;;;10.57;9.57;;;;;;;21.35;94.67;100153.50;4974513;28;20290;-69
2022/07/23 06:01:57;;;;;;;10.37;9.30;;;;;;;21.66;92.28;100160.94;4968103;28;20219;-68
2022/07/23 06:04:22;;;;;;;10.00;9.07;;;;;;;21.91;90.27;100154.81;4974052;28;20215;-68
2022/07/23 06:06:48;;;;;;;9.23;8.40;;;;;;;21.74;89.65;100171.44;4980889;28;20217;-68
2022/07/23 06:09:13;;;;;;;10.87;9.97;;;;;;;21.88;90.14;100170.03;4982379;28;20228;-68
2022/07/23 06:11:40;;;;;;;10.17;9.27;;;;;;;22.08;87.75;100163.56;4953853;28;20235;-68
2022/07/23 06:14:05;;;;;;;9.93;9.13;;;;;;;22.18;87.90;100162.66;4978504;28;20240;-68
2022/07/23 06:16:31;;;;;;;10.17;9.20;;;;;;;22.39;83.52;100159.63;4975731;28;20192;-67
2022/07/23 06:18:56;;;;;;;13.07;8.73;;;;;;;21.79;87.37;100157.88;4975129;28;20200;-68
2022/07/23 06:21:22;;;;;;;9.63;8.70;;;;;;;22.33;84.98;100158.44;4967308;28;20234;-68
2022/07/23 06:23:47;;;;;;;9.70;8.73;;;;;;;22.62;81.86;100159.84;4980490;28;20265;-68
2022/07/23 06:26:12;;;;;;;9.70;8.73;;;;;;;22.79;79.12;100165.13;4975825;28;20606;-67
2022/07/23 06:28:37;;;;;;;10.03;9.13;;;;;;;22.77;79.86;100160.03;4974863;28;20192;-68
2022/07/23 06:31:03;;;;;;;9.10;8.17;;;;;;;22.43;77.28;100155.72;4972821;28;20219;-67
2022/07/23 06:33:28;;;;;;;7.97;7.27;;;;;;;21.97;79.16;100157.78;4983277;28;20198;-67
2022/07/23 06:35:53;;;;;;;8.40;7.60;;;;;;;22.28;78.77;100152.84;4990050;28;20199;-67
2022/07/23 06:38:19;;;;;;;9.23;7.13;;;;;;;22.54;76.30;100152.78;4975413;28;20610;-67
2022/07/23 06:40:44;;;;;;;8.33;7.50;;;;;;;22.83;74.47;100164.63;4966951;28;20238;-68
2022/07/23 06:43:10;;;;;;;8.07;7.27;;;;;;;22.93;72.48;100169.72;4984909;28;20196;-68
2022/07/23 06:45:36;;;;;;;9.30;7.40;;;;;;;23.46;70.97;100164.16;4974924;28;20184;-67
2022/07/23 06:48:02;;;;;;;7.23;6.63;;;;;;;24.70;63.09;100161.09;4974565;28;20533;-68
2022/07/23 06:50:28;;;;;;;7.27;6.67;;;;;;;26.24;54.88;100160.78;4967867;28;20302;-68
2022/07/23 06:52:53;;;;;;;6.47;5.90;;;;;;;26.71;53.42;100163.91;4986637;28;20267;-68
2022/07/23 06:55:19;;;;;;;7.13;5.95;;;;;;;27.75;48.45;100175.72;4974724;28;20267;-68
2022/07/23 06:57:44;;;;;;;7.63;6.20;;;;;;;28.01;47.53;100182.16;4986195;28;20195;-68
2022/07/23 07:00:10;;;;;;;6.32;5.82;;;;;;;28.16;46.44;100182.84;4953479;28;20191;-68
2022/07/23 07:02:36;;;;;;;6.25;5.70;;;;;;;28.91;44.20;100191.78;4988868;28;20550;-68
2022/07/23 07:05:01;;;;;;;6.38;5.88;;;;;;;27.41;47.06;100197.66;4974270;28;20658;-68
2022/07/23 07:07:27;;;;;;;7.00;6.30;;;;;;;28.69;45.47;100180.56;4973290;28;20508;-68
2022/07/23 07:09:52;;;;;;;5.70;5.28;;;;;;;29.91;41.89;100193.56;4974145;28;20180;-68
2022/07/23 07:12:17;;;;;;;7.93;5.80;;;;;;;30.49;39.96;100203.34;4965565;28;20649;-68
2022/07/23 07:14:43;;;;;;;5.63;5.03;;;;;;;31.44;37.24;100206.91;4974512;28;20188;-67
2022/07/23 07:17:10;;;;;;;6.03;5.38;;;;;;;31.32;37.55;100208.66;4979657;28;20312;-69
2022/07/23 07:19:36;;;;;;;6.20;5.60;;;;;;;31.53;36.64;100205.63;4972649;28;20243;-66
2022/07/23 07:22:01;;;;;;;7.40;5.53;;;;;;;31.92;36.15;100218.72;4966333;28;20272;-68
2022/07/23 07:24:27;;;;;;;6.20;4.95;;;;;;;33.58;33.19;100223.75;4974453;28;20207;-68
2022/07/23 07:26:52;;;;;;;6.85;5.18;;;;;;;34.10;31.86;100218.44;4974454;28;20183;-68
2022/07/23 07:29:18;;;;;;;5.47;4.65;;;;;;;34.53;31.27;100226.97;4972756;28;20184;-68
2022/07/23 07:31:43;;;;;;;5.88;5.38;;;;;;;33.12;33.37;100224.28;4957135;28;20229;-68
2022/07/23 07:34:08;;;;;;;6.05;4.90;;;;;;;33.79;32.75;100227.66;4976494;28;20295;-68
2022/07/23 07:36:35;;;;;;;5.13;4.70;;;;;;;34.20;32.20;100233.00;4972843;28;20184;-68
2022/07/23 07:39:01;;;;;;;5.07;4.65;;;;;;;36.49;28.17;100243.13;4974039;28;20422;-69
2022/07/23 07:41:26;;;;;;;6.28;5.68;;;;;;;36.00;28.35;100241.22;4974433;28;20238;-68
2022/07/23 07:43:52;;;;;;;8.20;5.50;;;;;;;34.54;30.31;100241.16;4978127;28;20601;-68
2022/07/23 07:46:17;;;;;;;6.38;5.30;;;;;;;34.03;31.11;100243.63;4973620;28;20176;-68
2022/07/23 07:48:42;;;;;;;5.95;5.32;;;;;;;32.93;33.08;100244.06;4973066;28;20643;-68
2022/07/23 07:51:07;;;;;;;6.25;5.32;;;;;;;32.70;32.82;100258.09;4971933;28;20262;-68
2022/07/23 07:53:33;;;;;;;5.85;5.30;;;;;;;34.03;31.00;100251.63;4980554;28;20283;-67
2022/07/23 07:55:58;;;;;;;10.70;5.75;;;;;;;33.61;31.54;100258.72;4971802;28;20554;-68
2022/07/23 07:58:24;;;;;;;9.00;5.63;;;;;;;33.34;31.84;100257.59;4973675;28;20323;-68
2022/07/23 08:00:49;;;;;;;6.13;5.53;;;;;;;34.57;30.68;100262.03;4969058;28;20234;-67
2022/07/23 08:03:14;;;;;;;6.35;5.85;;;;;;;36.31;28.11;100265.66;4972035;28;20184;-68
2022/07/23 08:05:40;;;;;;;5.55;5.03;;;;;;;37.65;26.43;100265.19;4973197;28;20208;-68
2022/07/23 08:08:05;;;;;;;5.57;5.07;;;;;;;38.12;26.01;100269.72;4972239;28;20679;-69
2022/07/23 08:10:31;;;;;;;5.82;4.97;;;;;;;37.93;25.01;100272.03;4961627;28;20228;-68
2022/07/23 08:12:58;;;;;;;7.60;5.70;;;;;;;34.07;30.07;100272.25;4975937;28;20184;-68
2022/07/23 08:15:26;;;;;;;7.07;5.50;;;;;;;34.75;29.75;100264.47;4971955;28;20701;-68
2022/07/23 08:17:51;;;;;;;5.82;5.32;;;;;;;35.25;29.19;100259.44;4972011;28;20298;-68
2022/07/23 08:20:19;;;;;;;7.63;5.45;;;;;;;35.34;29.28;100254.47;4965617;28;20209;-68
2022/07/23 08:22:59;;;;;;;6.43;5.82;;;;;;;37.06;27.09;100258.91;4972090;28;20187;-68
2022/07/23 08:25:27;;;;;;;5.88;5.25;;;;;;;37.88;25.90;100263.97;4973234;28;20198;-68
2022/07/23 08:27:52;;;;;;;7.35;4.85;;;;;;;38.90;25.27;100270.66;4973242;28;20187;-68
2022/07/23 08:30:19;;;;;;;6.10;5.50;;;;;;;39.63;23.77;100272.19;4964831;28;20335;-68
2022/07/23 08:33:00;;;;;;;6.95;5.22;;;;;;;40.17;21.56;100275.25;4972137;28;20195;-66
2022/07/23 08:35:31;;;;;;;4.80;4.40;;;;;;;40.37;21.46;100277.00;4973092;28;20266;-67
2022/07/23 08:37:57;;;;;;;6.65;4.63;;;;;;;39.92;22.15;100273.44;4972815;28;20208;-67
2022/07/23 08:40:25;;;;;;;5.47;4.95;;;;;;;38.90;22.43;100271.47;4963884;28;20255;-67
2022/07/23 08:42:51;;;;;;;5.30;4.80;;;;;;;39.09;22.21;100267.41;4984780;28;20257;-67
2022/07/23 08:45:20;;;;;;;5.00;4.60;;;;;;;38.16;22.59;100270.00;4972787;28;20263;-67
2022/07/23 08:47:49;;;;;;;5.28;4.88;;;;;;;36.51;24.56;100277.69;4972656;28;20542;-67
2022/07/23 08:50:14;;;;;;;5.10;4.68;;;;;;;34.43;27.00;100275.69;4963283;28;20279;-67
2022/07/23 08:52:40;;;;;;;5.70;5.20;;;;;;;32.61;29.59;100276.25;4986070;28;20191;-67
2022/07/23 08:55:06;;;;;;;5.28;4.80;;;;;;;32.58;30.78;100268.72;4973036;28;20190;-67
2022/07/23 08:57:32;;;;;;;5.63;5.13;;;;;;;34.50;27.65;100269.38;4973157;28;20274;-67
2022/07/23 08:59:58;;;;;;;5.53;5.03;;;;;;;34.31;27.27;100268.72;4971356;28;20739;-68
2022/07/23 09:02:23;;;;;;;5.43;5.00;;;;;;;33.97;27.54;100264.06;4977210;28;20318;-67
2022/07/23 09:04:49;;;;;;;6.57;5.00;;;;;;;33.46;28.29;100253.88;4971058;28;20200;-68
2022/07/23 09:07:14;;;;;;;5.20;4.70;;;;;;;34.02;27.99;100260.69;4972609;28;20200;-67
2022/07/23 09:09:40;;;;;;;7.60;5.60;;;;;;;32.66;30.27;100258.56;4973024;28;20581;-67
2022/07/23 09:12:07;;;;;;;6.05;5.35;;;;;;;32.51;30.29;100261.63;4950470;28;20697;-67
2022/07/23 09:14:39;;;;;;;6.60;5.05;;;;;;;34.11;27.58;100260.09;4972434;28;20215;-68
2022/07/23 09:17:10;;;;;;;5.90;5.38;;;;;;;32.60;29.26;100258.63;4972471;28;20184;-67
2022/07/23 09:19:35;;;;;;;9.38;5.10;;;;;;;33.98;27.88;100251.53;4973777;28;20270;-67
2022/07/23 09:22:20;;;;;;;4.13;3.83;;;;;;;35.25;25.28;100251.41;4980605;28;20714;-67
2022/07/23 09:25:13;;;;;;;4.53;4.10;;;;;;;36.56;23.97;100260.88;4976517;28;20655;-67
2022/07/23 09:27:46;;;;;;;4.78;4.30;;;;;;;36.93;22.83;100262.84;4963002;28;20168;-67
2022/07/23 09:30:12;;;;;;;11.55;3.92;;;;;;;36.27;23.58;100269.09;4966143;28;20188;-67
2022/07/23 09:32:39;;;;;;;4.22;3.92;;;;;;;35.66;25.18;100265.41;4975071;28;20651;-67
2022/07/23 09:35:05;;;;;;;4.38;3.97;;;;;;;36.25;23.63;100271.22;4975714;28;20199;-67
2022/07/23 09:37:30;;;;;;;4.75;4.30;;;;;;;37.67;22.07;100271.09;4971516;28;20196;-67
2022/07/23 09:40:04;;;;;;;4.13;3.78;;;;;;;35.86;24.00;100259.50;4990530;28;20182;-67
2022/07/23 09:42:30;;;;;;;4.95;4.50;;;;;;;34.62;25.47;100259.47;4980699;28;20224;-67
2022/07/23 09:44:57;;;;;;;6.35;4.25;;;;;;;34.59;26.02;100259.94;4975599;28;20235;-67
2022/07/23 09:47:26;;;;;;;4.30;3.90;;;;;;;35.56;23.99;100259.91;4976088;28;20654;-67
2022/07/23 09:50:01;;;;;;;4.72;4.32;;;;;;;34.01;26.90;100256.41;4975267;28;20211;-67
2022/07/23 09:52:32;;;;;;;5.40;4.10;;;;;;;36.43;23.45;100265.56;4964311;28;20223;-66
2022/07/23 09:55:05;;;;;;;6.10;4.10;;;;;;;37.33;22.78;100263.38;4990442;28;20184;-67
2022/07/23 09:57:32;;;;;;;5.00;3.75;;;;;;;37.01;22.97;100261.53;4976111;28;20266;-66
2022/07/23 10:00:01;;;;;;;5.70;3.92;;;;;;;36.16;22.73;100257.50;4974906;28;20180;-67
2022/07/23 10:02:29;;;;;;;4.28;3.58;;;;;;;35.36;23.62;100261.19;4981132;28;20700;-67
2022/07/23 10:04:54;;;;;;;4.28;3.88;;;;;;;36.32;23.31;100267.28;4975715;28;20966;-67
2022/07/23 10:07:23;;;;;;;4.13;3.83;;;;;;;34.88;25.28;100257.25;4975943;28;20203;-66
2022/07/23 10:09:52;;;;;;;4.95;4.28;;;;;;;33.20;27.02;100249.78;4971086;28;20267;-68
2022/07/23 10:14:47;;;;;;;4.30;3.90;;;;;;;32.03;28.84;100255.22;4975691;28;20180;-67
2022/07/23 10:17:13;;;;;;;5.93;4.47;;;;;;;31.74;29.82;100256.75;4974238;28;20222;-67
2022/07/23 10:19:39;;;;;;;5.32;4.38;;;;;;;31.17;29.89;100256.81;4975027;28;20647;-67
2022/07/23 10:22:08;;;;;;;4.85;4.45;;;;;;;30.59;31.17;100255.97;4980333;28;20270;-66
2022/07/23 10:24:49;;;;;;;5.38;4.88;;;;;;;31.35;30.21;100243.59;4975614;28;20707;-67
2022/07/23 10:27:33;;;;;;;7.70;4.65;;;;;;;32.24;28.68;100255.00;4975477;28;20258;-67
2022/07/23 10:30:07;;;;;;;5.40;4.85;;;;;;;32.22;29.02;100257.09;4975767;28;20184;-67
2022/07/23 10:33:09;;;;;;;4.82;4.15;;;;;;;35.06;26.00;100249.00;4963037;28;20220;-66
2022/07/23 10:35:47;;;;;;;4.65;4.25;;;;;;;37.79;21.99;100253.69;4974842;28;20224;-67
2022/07/23 10:38:24;;;;;;;5.22;4.30;;;;;;;37.92;22.08;100249.78;4975055;28;20284;-66
2022/07/23 10:40:59;;;;;;;4.90;4.43;;;;;;;37.52;22.08;100245.00;4966421;28;20313;-67
2022/07/23 10:43:25;;;;;;;4.93;4.55;;;;;;;35.84;23.91;100248.22;4973698;28;20192;-67
2022/07/23 10:45:51;;;;;;;6.60;4.95;;;;;;;34.07;26.61;100248.25;4974954;28;20659;-67
2022/07/23 10:48:16;;;;;;;5.95;5.35;;;;;;;32.95;27.42;100249.97;4990145;28;20662;-67
2022/07/23 10:51:03;;;;;;;5.40;4.97;;;;;;;30.03;31.56;100247.59;4967035;28;20267;-66
2022/07/23 10:53:51;;;;;;;5.72;5.20;;;;;;;29.57;32.82;100243.97;4982207;28;20180;-67
2022/07/23 10:56:49;;;;;;;10.15;5.32;;;;;;;29.14;34.16;100244.38;4973283;28;20188;-67
2022/07/23 10:59:15;;;;;;;8.38;5.00;;;;;;;29.13;34.25;100242.72;4981281;28;20719;-68
2022/07/23 11:01:40;;;;;;;5.60;5.10;;;;;;;29.38;33.89;100239.50;4967439;28;20306;-67
2022/07/23 11:04:07;;;;;;;5.93;5.32;;;;;;;29.82;33.46;100229.25;4977686;28;20665;-66
2022/07/23 11:07:02;;;;;;;6.20;5.30;;;;;;;29.93;33.71;100225.97;4974471;28;20650;-67
2022/07/23 11:09:40;;;;;;;6.03;5.53;;;;;;;29.30;33.71;100235.25;4977207;28;20241;-67
2022/07/23 11:12:21;;;;;;;6.97;5.28;;;;;;;28.90;35.11;100229.88;4965404;28;20741;-67
2022/07/23 11:15:05;;;;;;;8.35;5.20;;;;;;;29.09;34.48;100233.56;4974993;28;20191;-66
2022/07/23 11:17:33;;;;;;;5.82;5.10;;;;;;;28.87;34.50;100227.63;4963820;28;20633;-67
2022/07/23 11:20:12;;;;;;;5.97;5.47;;;;;;;29.52;35.38;100232.38;4967898;28;20191;-66
2022/07/23 11:22:43;;;;;;;5.30;4.80;;;;;;;28.98;36.65;100224.41;4950455;28;20215;-66